Time;durP1;ratioP1;P1;durP2;ratioP2;P2;SDS_P1;SDS_P2;PMS_P1;PMS_P2;Temp;Humidity;BMP_temperature;BMP_pressure;BME280_temperature;BME280_humidity;BME280_pressure;Samples;Min_cycle;Max_cycle;Signal;HPM_P1;HPM_P2
2021/09/26 00:01:14;;;;;;;;;;;14.80;52.30;;;;;;4345198;33;20394;-38
2021/09/26 00:03:40;;;;;;;;;;;14.90;52.40;;;;;;4345127;33;19981;-37
2021/09/26 00:06:06;;;;;;;;;;;15.00;52.30;;;;;;4345285;33;20030;-37
2021/09/26 00:08:32;;;;;;;;;;;15.10;52.30;;;;;;4345807;33;19967;-38
2021/09/26 00:11:00;;;;;;;;;;;15.10;52.20;;;;;;4345451;33;19972;-37
2021/09/26 00:13:26;;;;;;;;;;;15.30;52.20;;;;;;4345608;33;19986;-39
2021/09/26 00:15:53;;;;;;;;;;;15.30;52.00;;;;;;4345299;33;19994;-38
2021/09/26 00:18:19;;;;;;;;;;;15.40;51.90;;;;;;4344815;33;19974;-38
2021/09/26 00:20:45;;;;;;;;;;;15.50;51.80;;;;;;4345096;33;19966;-39
2021/09/26 00:23:11;;;;;;;;;;;15.50;51.70;;;;;;4344755;33;19959;-39
2021/09/26 00:25:38;;;;;;;;;;;15.60;51.60;;;;;;4345350;33;19997;-37
2021/09/26 00:28:04;;;;;;;;;;;15.60;51.50;;;;;;4345312;33;19974;-36
2021/09/26 00:30:30;;;;;;;;;;;15.60;51.30;;;;;;4345481;33;19974;-39
2021/09/26 00:32:56;;;;;;;;;;;15.70;51.30;;;;;;4345071;33;19970;-39
2021/09/26 00:35:23;;;;;;;;;;;15.70;51.20;;;;;;4344909;33;20363;-40
2021/09/26 00:37:50;;;;;;;;;;;15.70;51.20;;;;;;4344872;33;19977;-39
2021/09/26 00:40:16;;;;;;;;;;;15.70;51.20;;;;;;4345200;33;19973;-39
2021/09/26 00:42:42;;;;;;;;;;;15.80;51.20;;;;;;4344576;33;19970;-39
2021/09/26 00:45:08;;;;;;;;;;;15.80;51.20;;;;;;4345052;33;19975;-38
2021/09/26 00:47:34;;;;;;;;;;;15.90;51.30;;;;;;4345980;32;19990;-39
2021/09/26 00:50:01;;;;;;;;;;;15.90;51.30;;;;;;4359824;32;19974;-39
2021/09/26 00:52:27;;;;;;;;;;;16.00;51.20;;;;;;4345461;32;20472;-37
2021/09/26 00:54:53;;;;;;;;;;;16.00;51.10;;;;;;4333583;32;19970;-38
2021/09/26 00:57:20;;;;;;;;;;;16.00;51.10;;;;;;4345841;32;20406;-39
2021/09/26 00:59:46;;;;;;;;;;;16.00;51.10;;;;;;4359561;32;19978;-39
2021/09/26 01:02:12;;;;;;;;;;;16.10;51.20;;;;;;4359907;32;19955;-38
2021/09/26 01:04:38;;;;;;;;;;;16.10;51.20;;;;;;4359529;32;19954;-39
2021/09/26 01:07:24;;;;;;;;;;;16.10;51.20;;;;;;4345407;32;19973;-39
2021/09/26 01:10:11;;;;;;;;;;;16.10;51.40;;;;;;4346337;32;20031;-38
2021/09/26 01:13:07;;;;;;;;;;;16.10;51.30;;;;;;4345391;32;19989;-38
2021/09/26 01:15:58;;;;;;;;;;;16.10;51.50;;;;;;4347366;32;19994;-38
2021/09/26 01:18:27;;;;;;;;;;;16.00;51.90;;;;;;4359194;32;20339;-38
2021/09/26 01:21:01;;;;;;;;;;;16.00;52.30;;;;;;4359405;32;19978;-38
2021/09/26 01:24:10;;;;;;;;;;;15.90;52.50;;;;;;4345457;32;19998;-38
2021/09/26 01:26:45;;;;;;;;;;;15.90;53.00;;;;;;4331176;32;20507;-37
2021/09/26 01:29:42;;;;;;;;;;;15.90;53.20;;;;;;4359396;32;19989;-38
2021/09/26 01:32:09;;;;;;;;;;;15.90;53.30;;;;;;4345512;32;19982;-36
2021/09/26 01:34:49;;;;;;;;;;;16.00;53.20;;;;;;4345324;32;19967;-38
2021/09/26 01:37:26;;;;;;;;;;;16.00;53.10;;;;;;4359049;32;19981;-38
2021/09/26 01:40:11;;;;;;;;;;;16.00;53.20;;;;;;4345325;32;19990;-38
2021/09/26 01:42:47;;;;;;;;;;;16.00;54.10;;;;;;4345220;32;20056;-38
2021/09/26 01:45:42;;;;;;;;;;;16.00;53.50;;;;;;4358797;32;20030;-38
2021/09/26 01:48:27;;;;;;;;;;;16.00;53.60;;;;;;4354849;32;19962;-38
2021/09/26 01:50:56;;;;;;;;;;;16.00;53.70;;;;;;4344126;33;20373;-38
2021/09/26 01:53:22;;;;;;;;;;;16.00;53.70;;;;;;4343756;33;20046;-43
2021/09/26 01:55:49;;;;;;;;;;;16.00;53.70;;;;;;4330282;33;19987;-38
2021/09/26 01:58:16;;;;;;;;;;;16.00;53.70;;;;;;4330041;33;19959;-38
2021/09/26 02:00:42;;;;;;;;;;;16.00;53.80;;;;;;4318090;33;19962;-38
2021/09/26 02:03:08;;;;;;;;;;;16.10;53.70;;;;;;4330095;33;20434;-38
2021/09/26 02:05:38;;;;;;;;;;;16.10;53.90;;;;;;4329999;33;20418;-38
2021/09/26 02:08:06;;;;;;;;;;;16.10;53.70;;;;;;4329493;33;20036;-38
2021/09/26 02:10:32;;;;;;;;;;;16.10;53.90;;;;;;4343470;33;19991;-39
2021/09/26 02:12:58;;;;;;;;;;;16.10;54.00;;;;;;4329826;33;19997;-38
2021/09/26 02:15:25;;;;;;;;;;;16.20;54.10;;;;;;4330309;33;19998;-39
2021/09/26 02:17:51;;;;;;;;;;;16.20;54.10;;;;;;4318127;33;19974;-37
2021/09/26 02:20:18;;;;;;;;;;;16.30;54.00;;;;;;4317353;33;20395;-37
2021/09/26 02:22:45;;;;;;;;;;;16.30;54.00;;;;;;4343683;33;19970;-38
2021/09/26 02:25:12;;;;;;;;;;;16.30;54.10;;;;;;4343760;33;19963;-38
2021/09/26 02:27:38;;;;;;;;;;;16.30;54.10;;;;;;4329860;33;20401;-39
2021/09/26 02:30:05;;;;;;;;;;;16.30;54.00;;;;;;4343612;33;19975;-38
2021/09/26 02:32:32;;;;;;;;;;;16.30;54.10;;;;;;4343709;33;20070;-39
2021/09/26 02:34:58;;;;;;;;;;;16.30;54.20;;;;;;4343338;33;19978;-38
2021/09/26 02:37:24;;;;;;;;;;;16.40;54.30;;;;;;4343377;33;19978;-38
2021/09/26 02:39:50;;;;;;;;;;;16.30;54.30;;;;;;4329536;33;19958;-38
2021/09/26 02:42:38;;;;;;;;;;;16.40;54.40;;;;;;4329523;33;20426;-37
2021/09/26 02:45:21;;;;;;;;;;;16.40;54.40;;;;;;4330186;33;19967;-38
2021/09/26 02:47:59;;;;;;;;;;;16.40;54.50;;;;;;4320688;32;19967;-38
2021/09/26 02:50:26;;;;;;;;;;;16.50;54.50;;;;;;4344542;32;19966;-38
2021/09/26 02:52:52;;;;;;;;;;;16.50;54.20;;;;;;4344473;32;19993;-38
2021/09/26 02:55:18;;;;;;;;;;;16.50;54.20;;;;;;4358237;32;20461;-38
2021/09/26 02:57:44;;;;;;;;;;;16.50;54.10;;;;;;4358488;32;19978;-38
2021/09/26 03:00:12;;;;;;;;;;;16.60;54.20;;;;;;4344615;32;20064;-38
2021/09/26 03:02:38;;;;;;;;;;;16.60;54.20;;;;;;4358629;32;20064;-39
2021/09/26 03:05:05;;;;;;;;;;;16.70;54.10;;;;;;4358387;32;19966;-38
2021/09/26 03:07:32;;;;;;;;;;;16.70;54.00;;;;;;4358302;32;19972;-37
2021/09/26 03:09:58;;;;;;;;;;;16.80;54.10;;;;;;4358236;32;20409;-38
2021/09/26 03:12:24;;;;;;;;;;;16.80;54.00;;;;;;4358107;32;19962;-38
2021/09/26 03:14:51;;;;;;;;;;;16.90;54.00;;;;;;4358076;32;19974;-37
2021/09/26 03:17:17;;;;;;;;;;;17.00;53.80;;;;;;4358060;32;19962;-38
2021/09/26 03:19:43;;;;;;;;;;;17.10;53.70;;;;;;4360326;32;19951;-38
2021/09/26 03:22:10;;;;;;;;;;;17.20;53.60;;;;;;4360995;32;20375;-38
2021/09/26 03:24:36;;;;;;;;;;;17.30;53.50;;;;;;4361078;32;19951;-38
2021/09/26 03:27:08;;;;;;;;;;;17.40;53.40;;;;;;4360877;32;19993;-38
2021/09/26 03:29:35;;;;;;;;;;;17.50;53.20;;;;;;4313847;33;19995;-37
2021/09/26 03:32:01;;;;;;;;;;;17.70;53.00;;;;;;4313894;33;19971;-36
2021/09/26 03:34:28;;;;;;;;;;;17.80;52.60;;;;;;4299323;33;19968;-37
2021/09/26 03:36:54;;;;;;;;;;;18.00;53.10;;;;;;4299351;33;20013;-38
2021/09/26 03:39:20;;;;;;;;;;;18.10;52.30;;;;;;4299674;33;19994;-37
2021/09/26 03:41:46;;;;;;;;;;;18.30;51.90;;;;;;4299039;33;19968;-38
2021/09/26 03:44:13;;;;;;;;;;;18.50;51.80;;;;;;4299683;33;19976;-38
2021/09/26 03:46:39;;;;;;;;;;;18.70;51.60;;;;;;4299111;33;19983;-37
2021/09/26 03:49:05;;;;;;;;;;;18.90;51.30;;;;;;4289079;33;20065;-38
2021/09/26 03:51:31;;;;;;;;;;;19.10;51.00;;;;;;4285225;33;19979;-37
2021/09/26 03:53:58;;;;;;;;;;;19.30;50.70;;;;;;4273115;33;20060;-37
2021/09/26 03:56:24;;;;;;;;;;;19.50;50.40;;;;;;4285199;33;19987;-37
2021/09/26 03:58:50;;;;;;;;;;;19.70;50.10;;;;;;4285071;33;20002;-37
2021/09/26 04:01:16;;;;;;;;;;;19.90;49.80;;;;;;4318946;33;20074;-37
2021/09/26 04:03:42;;;;;;;;;;;20.10;49.40;;;;;;4328274;33;19966;-36
2021/09/26 04:06:11;;;;;;;;;;;20.30;49.10;;;;;;4353270;32;19974;-37
2021/09/26 04:08:38;;;;;;;;;;;20.50;48.80;;;;;;4360342;32;20070;-37
2021/09/26 04:11:06;;;;;;;;;;;20.70;48.40;;;;;;4359982;32;19993;-37
2021/09/26 04:13:32;;;;;;;;;;;20.80;48.10;;;;;;4360261;32;19970;-37
2021/09/26 04:15:58;;;;;;;;;;;20.90;47.80;;;;;;4359899;32;20448;-38
2021/09/26 04:18:24;;;;;;;;;;;20.90;47.60;;;;;;4360243;32;20043;-37
2021/09/26 04:20:51;;;;;;;;;;;21.00;47.40;;;;;;4359964;32;20025;-37
2021/09/26 04:23:17;;;;;;;;;;;21.10;47.00;;;;;;4359933;32;19968;-37
2021/09/26 04:25:43;;;;;;;;;;;21.20;46.60;;;;;;4360377;32;19965;-38
2021/09/26 04:28:12;;;;;;;;;;;21.20;46.40;;;;;;4359851;32;20014;-39
2021/09/26 04:30:39;;;;;;;;;;;21.40;46.20;;;;;;4345838;32;19986;-39
2021/09/26 04:33:05;;;;;;;;;;;21.60;46.00;;;;;;4359519;32;19966;-38
2021/09/26 04:35:31;;;;;;;;;;;21.80;45.60;;;;;;4345539;32;20360;-38
2021/09/26 04:37:58;;;;;;;;;;;22.00;45.20;;;;;;4359822;32;19969;-38
2021/09/26 04:40:25;;;;;;;;;;;22.20;44.70;;;;;;4345656;32;19989;-39
2021/09/26 04:42:51;;;;;;;;;;;22.40;44.40;;;;;;4359654;32;19981;-39
2021/09/26 04:45:17;;;;;;;;;;;22.60;44.10;;;;;;4359505;32;19990;-38
2021/09/26 04:47:43;;;;;;;;;;;22.70;43.90;;;;;;4357278;32;20041;-37
2021/09/26 04:50:10;;;;;;;;;;;22.80;43.80;;;;;;4344771;32;20419;-37
2021/09/26 04:52:37;;;;;;;;;;;23.00;43.60;;;;;;4344731;32;19974;-38
2021/09/26 04:55:04;;;;;;;;;;;23.10;43.20;;;;;;4343523;33;19962;-39
2021/09/26 04:57:30;;;;;;;;;;;23.10;43.10;;;;;;4344947;32;19982;-39
2021/09/26 04:59:56;;;;;;;;;;;23.20;42.80;;;;;;4344728;32;19958;-38
2021/09/26 05:02:23;;;;;;;;;;;23.20;42.50;;;;;;4344561;32;20052;-38
2021/09/26 05:04:49;;;;;;;;;;;23.30;42.30;;;;;;4343091;33;19959;-37
2021/09/26 05:07:15;;;;;;;;;;;23.40;42.00;;;;;;4344849;32;19998;-36
2021/09/26 05:09:41;;;;;;;;;;;23.60;41.60;;;;;;4344579;32;19971;-37
2021/09/26 05:12:08;;;;;;;;;;;23.70;41.30;;;;;;4344466;32;19959;-37
2021/09/26 05:14:34;;;;;;;;;;;23.90;41.20;;;;;;4343132;33;19986;-37
2021/09/26 05:17:00;;;;;;;;;;;23.90;40.80;;;;;;4344239;32;20550;-37
2021/09/26 05:19:27;;;;;;;;;;;24.00;40.90;;;;;;4330318;33;19959;-37
2021/09/26 05:21:53;;;;;;;;;;;24.00;40.90;;;;;;4344178;32;20145;-37
2021/09/26 05:24:19;;;;;;;;;;;24.10;40.80;;;;;;4344648;32;19982;-37
2021/09/26 05:26:45;;;;;;;;;;;24.20;40.80;;;;;;4344162;32;20407;-36
2021/09/26 05:29:11;;;;;;;;;;;24.20;40.70;;;;;;4344085;32;20009;-36
2021/09/26 05:31:38;;;;;;;;;;;24.20;40.70;;;;;;4343993;32;19959;-36
2021/09/26 05:34:04;;;;;;;;;;;24.20;40.80;;;;;;4343965;32;20387;-38
2021/09/26 05:36:30;;;;;;;;;;;24.30;40.40;;;;;;4344028;32;20070;-38
2021/09/26 05:38:56;;;;;;;;;;;24.30;40.40;;;;;;4344105;32;19994;-38
2021/09/26 05:41:23;;;;;;;;;;;24.20;40.50;;;;;;4343541;32;19985;-38
2021/09/26 05:43:49;;;;;;;;;;;24.20;40.70;;;;;;4343751;32;20418;-38
2021/09/26 05:46:15;;;;;;;;;;;24.10;40.40;;;;;;4343781;32;19978;-38
2021/09/26 05:48:41;;;;;;;;;;;24.00;40.40;;;;;;4344057;32;19980;-39
2021/09/26 05:51:07;;;;;;;;;;;23.80;40.40;;;;;;4343573;33;20492;-39
2021/09/26 05:53:34;;;;;;;;;;;23.70;40.90;;;;;;4343801;33;20305;-38
2021/09/26 05:56:00;;;;;;;;;;;23.60;41.10;;;;;;4343739;33;19990;-39
2021/09/26 05:58:26;;;;;;;;;;;23.50;41.10;;;;;;4343684;33;20344;-39
2021/09/26 06:00:52;;;;;;;;;;;23.40;41.10;;;;;;4343821;33;20034;-39
2021/09/26 06:03:18;;;;;;;;;;;23.30;41.20;;;;;;4343348;33;20473;-39
2021/09/26 06:05:45;;;;;;;;;;;23.20;41.40;;;;;;4343441;33;19966;-39
2021/09/26 06:08:11;;;;;;;;;;;23.20;41.60;;;;;;4329780;33;20490;-40
2021/09/26 06:10:38;;;;;;;;;;;23.20;41.80;;;;;;4329775;33;19982;-40
2021/09/26 06:13:04;;;;;;;;;;;23.30;41.90;;;;;;4343622;33;19986;-39
2021/09/26 06:15:31;;;;;;;;;;;23.40;41.80;;;;;;4343364;33;20480;-39
2021/09/26 06:17:57;;;;;;;;;;;23.50;41.50;;;;;;4343479;33;19973;-38
2021/09/26 06:20:24;;;;;;;;;;;23.50;41.10;;;;;;4329992;33;20078;-39
2021/09/26 06:22:50;;;;;;;;;;;23.50;41.10;;;;;;4343804;33;19988;-39
2021/09/26 06:25:16;;;;;;;;;;;23.50;40.90;;;;;;4329702;33;20002;-38
2021/09/26 06:27:42;;;;;;;;;;;23.40;40.90;;;;;;4343362;33;19975;-39
2021/09/26 06:30:09;;;;;;;;;;;23.30;41.00;;;;;;4343560;33;19983;-39
2021/09/26 06:32:35;;;;;;;;;;;23.20;41.10;;;;;;4343737;33;20050;-39
2021/09/26 06:35:03;;;;;;;;;;;23.10;41.20;;;;;;4329733;33;20046;-39
2021/09/26 06:37:29;;;;;;;;;;;23.00;41.50;;;;;;4343439;33;19978;-40
2021/09/26 06:39:56;;;;;;;;;;;22.90;41.60;;;;;;4343650;33;20030;-39
2021/09/26 06:42:22;;;;;;;;;;;22.80;41.60;;;;;;4343066;33;20097;-39
2021/09/26 06:44:49;;;;;;;;;;;22.80;42.00;;;;;;4342977;33;20481;-39
2021/09/26 06:47:16;;;;;;;;;;;22.90;42.10;;;;;;4343319;33;20099;-39
2021/09/26 06:49:42;;;;;;;;;;;23.00;42.00;;;;;;4357093;32;19978;-39
2021/09/26 06:52:09;;;;;;;;;;;23.20;42.00;;;;;;4358557;32;19998;-38
2021/09/26 06:54:35;;;;;;;;;;;23.40;41.60;;;;;;4359661;32;20455;-38
2021/09/26 06:57:01;;;;;;;;;;;23.60;41.30;;;;;;4361109;32;20002;-39
2021/09/26 06:59:27;;;;;;;;;;;23.80;41.20;;;;;;4361003;32;19979;-39
2021/09/26 07:01:53;;;;;;;;;;;24.00;41.00;;;;;;4361310;32;19968;-39
2021/09/26 07:04:20;;;;;;;;;;;24.10;40.60;;;;;;4360609;32;19974;-39
2021/09/26 07:06:46;;;;;;;;;;;24.10;40.40;;;;;;4360962;32;20002;-38
2021/09/26 07:09:12;;;;;;;;;;;24.10;40.30;;;;;;4360867;32;20067;-38
2021/09/26 07:11:38;;;;;;;;;;;24.10;39.90;;;;;;4360712;32;20127;-39
2021/09/26 07:14:04;;;;;;;;;;;23.90;39.90;;;;;;4360511;32;20372;-39
2021/09/26 07:16:31;;;;;;;;;;;23.80;40.10;;;;;;4360498;32;20000;-38
2021/09/26 07:18:57;;;;;;;;;;;23.70;40.40;;;;;;4360718;32;20419;-39
2021/09/26 07:21:23;;;;;;;;;;;23.70;40.40;;;;;;4360891;32;19974;-39
2021/09/26 07:23:49;;;;;;;;;;;23.60;40.20;;;;;;4360777;32;19989;-39
2021/09/26 07:26:15;;;;;;;;;;;23.50;40.30;;;;;;4360668;32;19970;-39
2021/09/26 07:28:42;;;;;;;;;;;23.30;40.60;;;;;;4360467;32;20392;-39
2021/09/26 07:31:08;;;;;;;;;;;23.10;40.80;;;;;;4360818;32;20038;-38
2021/09/26 07:33:34;;;;;;;;;;;23.00;41.10;;;;;;4360920;32;19997;-38
2021/09/26 07:36:02;;;;;;;;;;;22.80;41.30;;;;;;4360750;32;19978;-39
2021/09/26 07:38:29;;;;;;;;;;;22.70;41.60;;;;;;4360735;32;19958;-38
2021/09/26 07:40:55;;;;;;;;;;;22.60;41.80;;;;;;4360607;32;19967;-39
2021/09/26 07:43:21;;;;;;;;;;;22.60;41.80;;;;;;4360595;32;19970;-40
2021/09/26 07:45:48;;;;;;;;;;;22.50;42.00;;;;;;4360465;32;20041;-39
2021/09/26 07:48:14;;;;;;;;;;;22.50;42.00;;;;;;4355035;32;20446;-39
2021/09/26 07:50:40;;;;;;;;;;;22.50;42.10;;;;;;4345328;33;19971;-39
2021/09/26 07:53:06;;;;;;;;;;;22.50;42.20;;;;;;4345358;33;19973;-39
2021/09/26 07:55:32;;;;;;;;;;;22.50;42.20;;;;;;4345182;33;20058;-38
2021/09/26 07:57:59;;;;;;;;;;;22.60;42.20;;;;;;4345620;33;19970;-39
2021/09/26 08:00:25;;;;;;;;;;;22.70;42.10;;;;;;4345286;33;20091;-39
2021/09/26 08:02:51;;;;;;;;;;;22.80;42.10;;;;;;4331400;33;19983;-39
2021/09/26 08:05:17;;;;;;;;;;;22.90;42.10;;;;;;4344323;32;19963;-39
2021/09/26 08:07:43;;;;;;;;;;;22.90;41.90;;;;;;4344782;33;19974;-38
2021/09/26 08:10:10;;;;;;;;;;;23.00;41.80;;;;;;4345084;33;19969;-40
2021/09/26 08:12:36;;;;;;;;;;;23.00;41.70;;;;;;4345204;33;20447;-40
2021/09/26 08:15:03;;;;;;;;;;;22.90;41.60;;;;;;4344784;33;19970;-41
2021/09/26 08:17:30;;;;;;;;;;;22.80;41.60;;;;;;4345225;33;19967;-40
2021/09/26 08:19:56;;;;;;;;;;;22.80;41.80;;;;;;4331137;33;20459;-39
2021/09/26 08:22:24;;;;;;;;;;;22.80;42.00;;;;;;4331314;33;20063;-39
2021/09/26 08:24:50;;;;;;;;;;;22.80;41.80;;;;;;4345315;33;19959;-39
2021/09/26 08:27:18;;;;;;;;;;;22.80;41.90;;;;;;4344937;33;20041;-40
2021/09/26 08:29:44;;;;;;;;;;;22.70;42.00;;;;;;4344913;33;20485;-39
2021/09/26 08:32:13;;;;;;;;;;;22.80;42.10;;;;;;4345065;33;19971;-40
2021/09/26 08:34:39;;;;;;;;;;;22.90;42.10;;;;;;4344710;33;19970;-39
2021/09/26 08:37:05;;;;;;;;;;;22.90;42.20;;;;;;4345247;33;19981;-40
2021/09/26 08:39:31;;;;;;;;;;;23.00;41.80;;;;;;4344637;33;20068;-38
2021/09/26 08:41:57;;;;;;;;;;;23.10;41.70;;;;;;4331077;33;19974;-38
2021/09/26 08:44:25;;;;;;;;;;;23.10;41.80;;;;;;4344588;33;20045;-38
2021/09/26 08:46:52;;;;;;;;;;;23.20;41.70;;;;;;4344566;33;20449;-38
2021/09/26 08:49:18;;;;;;;;;;;23.30;41.60;;;;;;4344653;33;19967;-38
2021/09/26 08:51:49;;;;;;;;;;;23.40;41.50;;;;;;4344678;33;20375;-39
2021/09/26 08:54:15;;;;;;;;;;;23.50;41.50;;;;;;4344960;33;19978;-39
2021/09/26 08:56:41;;;;;;;;;;;23.50;41.20;;;;;;4344345;33;20049;-39
2021/09/26 08:59:09;;;;;;;;;;;23.50;41.20;;;;;;4344157;33;20050;-38
2021/09/26 09:01:36;;;;;;;;;;;23.60;41.10;;;;;;4344438;33;19966;-39
2021/09/26 09:04:02;;;;;;;;;;;23.70;41.10;;;;;;4344943;33;20451;-39
2021/09/26 09:06:40;;;;;;;;;;;23.70;40.90;;;;;;4344616;33;19977;-40
2021/09/26 09:09:15;;;;;;;;;;;23.70;40.90;;;;;;4344565;33;19997;-38
2021/09/26 09:11:57;;;;;;;;;;;23.80;41.00;;;;;;4343976;33;19978;-38
2021/09/26 09:14:23;;;;;;;;;;;24.00;41.00;;;;;;4343798;33;20545;-39
2021/09/26 09:16:55;;;;;;;;;;;24.20;40.70;;;;;;4343977;33;19971;-39
2021/09/26 09:19:23;;;;;;;;;;;24.40;40.50;;;;;;4332189;32;19962;-40
2021/09/26 09:22:07;;;;;;;;;;;24.70;40.20;;;;;;4358757;32;19965;-38
2021/09/26 09:24:40;;;;;;;;;;;24.90;40.60;;;;;;4359070;32;19985;-39
2021/09/26 09:27:07;;;;;;;;;;;25.10;39.70;;;;;;4359321;32;19991;-39
2021/09/26 09:29:36;;;;;;;;;;;25.20;39.40;;;;;;4359190;32;19963;-39
2021/09/26 09:32:02;;;;;;;;;;;25.30;39.10;;;;;;4359080;32;19974;-38
2021/09/26 09:34:33;;;;;;;;;;;25.30;39.20;;;;;;4358990;32;19998;-39
2021/09/26 09:37:22;;;;;;;;;;;25.50;39.30;;;;;;4359175;32;19963;-38
2021/09/26 09:40:08;;;;;;;;;;;25.70;38.90;;;;;;4358768;32;20092;-39
2021/09/26 09:42:39;;;;;;;;;;;26.00;38.60;;;;;;4359063;32;19990;-37
2021/09/26 09:45:20;;;;;;;;;;;26.40;38.30;;;;;;4358942;32;19993;-38
2021/09/26 09:47:59;;;;;;;;;;;26.60;37.70;;;;;;4356017;32;19975;-39
2021/09/26 09:50:30;;;;;;;;;;;26.80;37.10;;;;;;4330494;33;20521;-38
2021/09/26 09:52:56;;;;;;;;;;;27.00;37.00;;;;;;4343422;33;20516;-38
2021/09/26 09:55:25;;;;;;;;;;;27.20;36.60;;;;;;4343638;33;20069;-38
2021/09/26 09:57:51;;;;;;;;;;;27.30;36.50;;;;;;4344012;33;19977;-38
2021/09/26 10:00:20;;;;;;;;;;;27.40;36.20;;;;;;4343776;33;19990;-38
2021/09/26 10:02:46;;;;;;;;;;;27.50;35.80;;;;;;4343969;33;19986;-39
2021/09/26 10:05:34;;;;;;;;;;;27.70;35.70;;;;;;4329555;33;20603;-39
2021/09/26 10:08:01;;;;;;;;;;;27.70;35.40;;;;;;4343793;33;20122;-38
2021/09/26 10:10:34;;;;;;;;;;;27.80;35.00;;;;;;4329961;33;19983;-39
2021/09/26 10:13:13;;;;;;;;;;;27.90;34.40;;;;;;4343717;33;20408;-38
2021/09/26 10:15:39;;;;;;;;;;;28.00;33.80;;;;;;4343549;33;20038;-38
2021/09/26 10:18:06;;;;;;;;;;;28.10;33.60;;;;;;4343942;33;20075;-38
2021/09/26 10:20:35;;;;;;;;;;;28.20;33.00;;;;;;4343451;33;20067;-38
2021/09/26 10:23:01;;;;;;;;;;;28.30;33.10;;;;;;4343512;33;19966;-39
2021/09/26 10:25:28;;;;;;;;;;;28.40;33.10;;;;;;4317707;33;19991;-39
2021/09/26 10:27:54;;;;;;;;;;;28.40;32.80;;;;;;4329243;33;19989;-39
2021/09/26 10:30:21;;;;;;;;;;;28.30;32.50;;;;;;4317743;33;20015;-38
2021/09/26 10:32:48;;;;;;;;;;;28.20;32.60;;;;;;4317850;33;19958;-39
2021/09/26 10:35:14;;;;;;;;;;;28.20;32.50;;;;;;4317225;33;19978;-39
2021/09/26 10:37:40;;;;;;;;;;;28.20;32.30;;;;;;4343275;33;20400;-38
2021/09/26 10:40:07;;;;;;;;;;;28.20;31.90;;;;;;4343533;33;19967;-39
2021/09/26 10:42:34;;;;;;;;;;;28.20;31.90;;;;;;4342984;33;20433;-39
2021/09/26 10:45:03;;;;;;;;;;;28.20;32.00;;;;;;4342822;33;20392;-38
2021/09/26 10:47:30;;;;;;;;;;;28.20;31.90;;;;;;4343913;32;20009;-37
2021/09/26 10:50:14;;;;;;;;;;;28.30;32.80;;;;;;4357777;32;20393;-38
2021/09/26 10:52:44;;;;;;;;;;;28.20;32.10;;;;;;4358168;32;20463;-38
2021/09/26 10:55:27;;;;;;;;;;;28.00;32.20;;;;;;4358139;32;20033;-37
2021/09/26 10:57:53;;;;;;;;;;;27.90;32.40;;;;;;4358051;32;19970;-39
2021/09/26 11:00:30;;;;;;;;;;;27.70;32.50;;;;;;4357933;32;20040;-38
2021/09/26 11:02:56;;;;;;;;;;;27.60;32.70;;;;;;4358149;32;19989;-39
2021/09/26 11:05:42;;;;;;;;;;;27.50;32.90;;;;;;4344137;32;19990;-38
2021/09/26 11:08:10;;;;;;;;;;;27.40;33.00;;;;;;4358458;32;19967;-40
2021/09/26 11:10:40;;;;;;;;;;;27.20;33.10;;;;;;4344656;32;20037;-38
2021/09/26 11:13:07;;;;;;;;;;;27.10;33.30;;;;;;4358199;32;19975;-38
2021/09/26 11:15:34;;;;;;;;;;;27.00;33.40;;;;;;4358227;32;19962;-38
2021/09/26 11:18:00;;;;;;;;;;;26.90;33.60;;;;;;4343791;32;19984;-38
2021/09/26 11:20:29;;;;;;;;;;;26.70;33.70;;;;;;4357760;32;19967;-39
2021/09/26 11:23:08;;;;;;;;;;;26.60;33.90;;;;;;4358074;32;20002;-38
2021/09/26 11:25:56;;;;;;;;;;;26.50;34.20;;;;;;4358180;32;20044;-38
2021/09/26 11:28:28;;;;;;;;;;;26.40;34.50;;;;;;4358040;32;20393;-37
2021/09/26 11:30:54;;;;;;;;;;;26.30;34.80;;;;;;4357934;32;19967;-38
2021/09/26 11:33:21;;;;;;;;;;;26.30;35.00;;;;;;4358131;32;19966;-38
2021/09/26 11:35:47;;;;;;;;;;;26.30;35.10;;;;;;4343782;32;20045;-39
2021/09/26 11:38:19;;;;;;;;;;;26.30;35.00;;;;;;4357276;32;20084;-38
2021/09/26 11:40:50;;;;;;;;;;;26.20;34.90;;;;;;4358583;32;20054;-38
2021/09/26 11:43:18;;;;;;;;;;;26.20;35.00;;;;;;4360239;32;20061;-38
2021/09/26 11:45:44;;;;;;;;;;;26.10;35.10;;;;;;4360147;32;20418;-39
2021/09/26 11:48:10;;;;;;;;;;;26.10;35.30;;;;;;4342047;33;20068;-39
2021/09/26 11:50:39;;;;;;;;;;;26.00;35.10;;;;;;4345499;33;20436;-38
2021/09/26 11:53:06;;;;;;;;;;;25.90;35.10;;;;;;4345479;33;19994;-38
2021/09/26 11:55:36;;;;;;;;;;;25.70;35.10;;;;;;4345386;33;19997;-37
2021/09/26 11:58:03;;;;;;;;;;;25.60;35.00;;;;;;4345239;33;19982;-38
2021/09/26 12:00:34;;;;;;;;;;;25.50;35.00;;;;;;4345419;33;20055;-39
2021/09/26 12:03:24;;;;;;;;;;;25.40;35.20;;;;;;4344743;33;19974;-39
2021/09/26 12:05:51;;;;;;;;;;;25.30;35.30;;;;;;4344664;33;20375;-38
2021/09/26 12:08:18;;;;;;;;;;;25.30;35.40;;;;;;4345152;33;19990;-39
2021/09/26 12:10:45;;;;;;;;;;;25.20;35.50;;;;;;4344948;33;20018;-39
2021/09/26 12:13:18;;;;;;;;;;;25.10;35.70;;;;;;4331597;33;19967;-38
2021/09/26 12:15:44;;;;;;;;;;;25.00;35.80;;;;;;4344861;33;20026;-38
2021/09/26 12:18:26;;;;;;;;;;;24.80;35.90;;;;;;4345460;33;20047;-38
2021/09/26 12:21:09;;;;;;;;;;;24.70;36.00;;;;;;4344524;33;19975;-38
2021/09/26 12:23:55;;;;;;;;;;;24.50;36.20;;;;;;4345265;33;20077;-38
2021/09/26 12:26:28;;;;;;;;;;;24.40;36.50;;;;;;4344666;33;19978;-38
2021/09/26 12:29:12;;;;;;;;;;;24.30;36.70;;;;;;4344593;33;20453;-38
2021/09/26 12:31:40;;;;;;;;;;;24.30;36.80;;;;;;4344744;33;20055;-38
2021/09/26 12:34:07;;;;;;;;;;;24.30;36.80;;;;;;4331044;33;20473;-38
2021/09/26 12:36:37;;;;;;;;;;;24.30;36.90;;;;;;4330574;33;20010;-39
2021/09/26 12:39:05;;;;;;;;;;;24.30;37.00;;;;;;4330768;33;20042;-38
2021/09/26 12:41:33;;;;;;;;;;;24.30;37.00;;;;;;4344779;33;20018;-38
2021/09/26 12:44:29;;;;;;;;;;;24.30;37.00;;;;;;4344448;33;20375;-38
2021/09/26 12:46:56;;;;;;;;;;;24.30;37.10;;;;;;4329317;33;20388;-39
2021/09/26 12:49:22;;;;;;;;;;;24.30;37.50;;;;;;4356807;32;19969;-39
2021/09/26 12:51:53;;;;;;;;;;;24.10;37.80;;;;;;4359309;32;19963;-39
2021/09/26 12:54:33;;;;;;;;;;;23.90;38.40;;;;;;4359602;32;20006;-40
2021/09/26 12:57:00;;;;;;;;;;;23.60;39.10;;;;;;4333922;32;20034;-41
2021/09/26 12:59:32;;;;;;;;;;;23.30;39.40;;;;;;4345219;32;19982;-38
2021/09/26 13:01:59;;;;;;;;;;;23.10;39.70;;;;;;4359112;32;19990;-39
2021/09/26 13:04:25;;;;;;;;;;;22.90;40.10;;;;;;4345322;32;19982;-38
2021/09/26 13:06:54;;;;;;;;;;;22.70;40.60;;;;;;4314977;33;19997;-37
2021/09/26 13:09:27;;;;;;;;;;;22.60;41.10;;;;;;4314980;33;19977;-36
2021/09/26 13:11:53;;;;;;;;;;;22.40;42.30;;;;;;4326980;33;20000;-36
2021/09/26 13:14:21;;;;;;;;;;;22.40;45.40;;;;;;4326608;33;19979;-34
2021/09/26 13:16:50;;;;;;;;;;;22.20;44.90;;;;;;4327225;33;19974;-38
2021/09/26 13:19:23;;;;;;;;;;;22.10;44.80;;;;;;4327257;33;19967;-37
2021/09/26 13:22:23;;;;;;;;;;;21.90;44.80;;;;;;4327063;33;19967;-37
2021/09/26 13:25:00;;;;;;;;;;;21.80;45.40;;;;;;4321696;33;20045;-37
2021/09/26 13:27:29;;;;;;;;;;;21.70;46.30;;;;;;4326997;33;19975;-37
2021/09/26 13:29:57;;;;;;;;;;;21.70;47.30;;;;;;4327034;33;20081;-37
2021/09/26 13:32:27;;;;;;;;;;;21.70;47.70;;;;;;4326875;33;20001;-37
2021/09/26 13:35:11;;;;;;;;;;;21.60;47.70;;;;;;4326520;33;20516;-36
2021/09/26 13:38:06;;;;;;;;;;;21.60;47.80;;;;;;4335437;33;19982;-36
2021/09/26 13:40:34;;;;;;;;;;;21.70;47.70;;;;;;4344215;33;19973;-36
2021/09/26 13:43:02;;;;;;;;;;;21.70;47.50;;;;;;4343575;33;20044;-36
2021/09/26 13:45:28;;;;;;;;;;;21.60;47.10;;;;;;4343541;33;19959;-36
2021/09/26 13:47:55;;;;;;;;;;;21.70;46.80;;;;;;4340226;33;19967;-36
2021/09/26 13:50:21;;;;;;;;;;;21.70;46.80;;;;;;4328904;33;20057;-36
2021/09/26 13:52:47;;;;;;;;;;;21.70;46.70;;;;;;4329108;33;20030;-37
2021/09/26 13:55:14;;;;;;;;;;;21.70;46.60;;;;;;4328863;33;20065;-36
2021/09/26 13:57:40;;;;;;;;;;;21.70;47.00;;;;;;4328728;33;20005;-37
2021/09/26 14:00:08;;;;;;;;;;;21.70;47.20;;;;;;4315575;33;20410;-38
2021/09/26 14:02:34;;;;;;;;;;;21.60;47.00;;;;;;4328916;33;19998;-37
2021/09/26 14:05:00;;;;;;;;;;;21.50;47.10;;;;;;4328430;33;20467;-37
2021/09/26 14:07:26;;;;;;;;;;;21.50;47.00;;;;;;4328736;33;19978;-39
2021/09/26 14:09:53;;;;;;;;;;;21.40;47.40;;;;;;4328772;33;20432;-38
2021/09/26 14:12:19;;;;;;;;;;;21.30;47.20;;;;;;4328658;33;19970;-38
2021/09/26 14:14:48;;;;;;;;;;;21.30;47.60;;;;;;4314852;33;20368;-37
2021/09/26 14:17:15;;;;;;;;;;;21.20;47.40;;;;;;4314862;33;19962;-38
2021/09/26 14:19:41;;;;;;;;;;;21.10;47.60;;;;;;4332384;33;20443;-37
2021/09/26 14:22:07;;;;;;;;;;;21.10;47.60;;;;;;4330105;33;19970;-37
2021/09/26 14:24:33;;;;;;;;;;;21.00;47.80;;;;;;4343170;33;20055;-37
2021/09/26 14:27:00;;;;;;;;;;;20.90;48.20;;;;;;4343420;33;20040;-38